Time;durP1;ratioP1;P1;durP2;ratioP2;P2;SDS_P1;SDS_P2;PMS_P1;PMS_P2;Temp;Humidity;BMP_temperature;BMP_pressure;BME280_temperature;BME280_humidity;BME280_pressure;Samples;Min_cycle;Max_cycle;Signal;HPM_P1;HPM_P2
2021/10/26 18:59:01;;;;;;;10.59;5.32;;;4.90;99.90;;;4.21;90.39;98537.75;2318853;27;20176;-74
2021/10/26 18:59:07;;;;;;;11.50;5.32;;;4.70;99.90;;;4.30;90.38;98551.34;176410;27;1309;-73
2021/10/26 18:59:13;;;;;;;12.27;5.30;;;4.70;99.90;;;4.25;90.40;98543.69;175632;28;1436;-73
2021/10/26 18:59:20;;;;;;;11.52;5.25;;;4.70;99.90;;;4.27;90.52;98549.75;175256;28;1055;-73
2021/10/26 18:59:26;;;;;;;11.40;5.30;;;4.70;99.90;;;4.22;90.82;98530.63;115565;28;2036235;-72
2021/10/26 18:59:34;;;;;;;11.90;5.37;;;4.70;99.90;;;4.30;91.00;98554.00;172941;28;1188;-73
2021/10/26 18:59:40;;;;;;;12.17;5.88;;;4.70;99.90;;;4.32;90.90;98554.72;172886;28;2365;-73
2021/10/26 18:59:46;;;;;;;12.52;6.22;;;4.70;99.90;;;4.30;90.96;98551.34;173846;28;1261;-73
2021/10/26 18:59:52;;;;;;;13.82;6.50;;;4.70;99.90;;;4.24;91.29;98547.34;173717;28;1046;-74
2021/10/26 18:59:58;;;;;;;14.70;6.53;;;4.60;99.90;;;4.31;91.08;98559.19;173371;28;1504;-73
2021/10/26 19:00:05;;;;;;;14.90;6.50;;;4.70;99.90;;;4.27;91.35;98550.59;172816;28;990;-74
2021/10/26 19:00:15;;;;;;;15.70;5.50;;;4.60;99.90;;;4.27;91.14;98547.94;172851;28;1368;-74
2021/10/26 19:00:23;;;;;;;15.38;5.41;;;4.70;99.90;;;4.25;91.12;98544.53;173717;28;1747;-74
2021/10/26 19:00:29;;;;;;;15.13;5.62;;;4.70;99.90;;;4.31;91.54;98555.69;171898;28;1339;-74
2021/10/26 19:00:35;;;;;;;15.00;5.93;;;4.60;99.90;;;4.28;91.40;98554.97;173779;28;1427;-74
2021/10/26 19:00:42;;;;;;;14.90;6.20;;;4.70;99.90;;;4.27;91.06;98547.94;174251;28;1311;-73
2021/10/26 19:00:48;;;;;;;14.50;6.54;;;4.70;99.90;;;4.26;91.53;98553.38;175692;28;1739;-73
2021/10/26 19:00:54;;;;;;;14.45;6.60;;;4.60;99.90;;;4.27;91.31;98547.94;173843;28;1633;-73
2021/10/26 19:01:00;;;;;;;13.45;6.28;;;4.70;99.90;;;4.26;91.51;98545.38;173602;28;1438;-73
2021/10/26 19:01:07;;;;;;;13.13;6.28;;;4.60;99.90;;;4.23;90.94;98537.66;173660;28;1532;-73
2021/10/26 19:01:16;;;;;;;11.23;6.33;;;4.60;99.90;;;4.29;91.31;98553.16;173080;28;1435;-74
2021/10/26 19:01:22;;;;;;;12.06;6.31;;;4.60;99.90;;;4.24;90.78;98548.19;172499;28;2125;-74
2021/10/26 19:01:28;;;;;;;13.30;6.20;;;4.70;99.90;;;4.29;91.23;98553.16;172990;28;1697;-73
2021/10/26 19:01:34;;;;;;;13.60;6.07;;;4.60;99.90;;;4.33;91.14;98562.59;171893;28;1611;-72
2021/10/26 19:01:40;;;;;;;14.07;5.88;;;4.70;99.90;;;4.28;90.66;98554.13;172030;28;1386;-74
2021/10/26 19:01:46;;;;;;;14.35;5.80;;;4.60;99.90;;;4.28;91.25;98557.63;173135;28;1562;-73
2021/10/26 19:01:52;;;;;;;14.12;5.80;;;4.70;99.90;;;4.27;90.70;98553.28;173436;28;1398;-74
2021/10/26 19:01:58;;;;;;;13.03;5.73;;;4.70;99.90;;;4.33;90.97;98562.59;173656;28;1315;-73
2021/10/26 19:02:04;;;;;;;12.95;5.70;;;4.60;99.90;;;4.31;90.69;98553.00;173653;28;1161;-74
2021/10/26 19:02:10;;;;;;;12.03;5.67;;;4.60;99.90;;;4.32;90.32;98557.38;172269;28;1643;-75
2021/10/26 19:02:16;;;;;;;12.15;5.65;;;4.60;99.90;;;4.34;90.12;98564.31;171394;28;2856;-74
2021/10/26 19:02:22;;;;;;;12.68;5.63;;;4.60;99.90;;;4.36;90.12;98566.81;171597;28;1387;-73
2021/10/26 19:02:28;;;;;;;13.50;6.00;;;4.60;99.90;;;4.36;90.00;98561.50;173999;28;1308;-73
2021/10/26 19:02:35;;;;;;;14.13;6.13;;;4.70;99.90;;;4.32;90.30;98560.03;173772;28;923;-74
2021/10/26 19:02:41;;;;;;;15.08;6.18;;;4.70;99.90;;;4.37;90.34;98568.53;171350;28;1382;-74
2021/10/26 19:02:50;;;;;;;15.20;6.33;;;4.70;99.90;;;4.31;90.01;98555.69;172407;28;824;-73
2021/10/26 19:02:59;;;;;;;14.55;6.47;;;4.70;99.90;;;4.31;90.13;98558.34;172114;28;1450;-74
2021/10/26 19:03:06;;;;;;;14.97;6.47;;;4.60;99.90;;;4.30;89.37;98556.66;171719;28;1000;-73
2021/10/26 19:03:12;;;;;;;15.63;6.67;;;4.60;99.90;;;4.35;89.58;98567.81;174180;28;1512;-73
2021/10/26 19:03:18;;;;;;;15.30;6.38;;;4.60;99.90;;;4.29;89.74;98563.81;173730;28;1257;-74
2021/10/26 19:03:24;;;;;;;15.50;6.47;;;4.60;99.90;;;4.32;89.89;98563.56;173483;28;1312;-74
2021/10/26 19:03:34;;;;;;;14.90;6.43;;;4.60;99.90;;;4.31;90.09;98567.19;173004;28;1169;-75
2021/10/26 19:03:40;;;;;;;13.16;6.43;;;4.60;99.90;;;4.27;89.73;98569.25;172981;28;1370;-73
2021/10/26 19:03:46;;;;;;;12.20;6.25;;;4.60;99.90;;;4.33;89.69;98569.75;173478;28;1415;-73
2021/10/26 19:03:52;;;;;;;13.20;5.95;;;4.60;99.90;;;4.33;90.32;98559.94;173738;28;990;-74
2021/10/26 19:03:58;;;;;;;14.80;5.70;;;4.60;99.90;;;4.29;90.02;98561.16;174376;28;1354;-73
2021/10/26 19:04:04;;;;;;;14.48;5.38;;;4.60;99.90;;;4.33;90.20;98567.94;173486;28;2106;-74
2021/10/26 19:04:10;;;;;;;15.47;5.40;;;4.60;99.90;;;4.32;89.60;98568.03;173797;28;887;-74
2021/10/26 19:04:18;;;;;;;16.35;5.80;;;4.60;99.90;;;4.23;90.29;98556.31;172665;28;1300;-73
2021/10/26 19:04:25;;;;;;;17.88;6.08;;;4.60;99.90;;;4.23;90.54;98557.16;173673;28;1530;-73
2021/10/26 19:04:31;;;;;;;17.93;6.63;;;4.60;99.90;;;4.26;89.93;98562.22;173653;28;1299;-73
2021/10/26 19:04:37;;;;;;;17.53;6.70;;;4.60;99.90;;;4.23;90.12;98562.47;172949;28;1802;-73
2021/10/26 19:04:43;;;;;;;18.48;6.80;;;4.60;99.90;;;4.25;90.45;98559.69;172976;28;1454;-73
2021/10/26 19:04:49;;;;;;;16.52;6.53;;;4.60;99.90;;;4.21;90.26;98555.56;174431;28;1356;-74
2021/10/26 19:04:55;;;;;;;14.05;6.22;;;4.60;99.90;;;4.28;90.38;98564.78;173500;28;1413;-74
2021/10/26 19:05:01;;;;;;;13.07;5.75;;;4.60;99.90;;;4.27;90.39;98563.94;173029;28;1240;-74
2021/10/26 19:05:09;;;;;;;13.20;5.53;;;4.60;99.90;;;4.31;90.51;98569.00;174151;28;1421;-74
2021/10/26 19:05:17;;;;;;;12.83;5.40;;;4.60;99.90;;;4.23;90.68;98553.63;173037;28;1435;-74
2021/10/26 19:05:23;;;;;;;13.38;5.52;;;4.60;99.90;;;4.30;90.74;98572.66;173554;28;1242;-73
2021/10/26 19:05:31;;;;;;;13.52;5.85;;;4.60;99.90;;;4.21;90.78;98550.22;172952;28;1919;-74
2021/10/26 19:05:45;;;;;;;12.95;6.15;;;4.60;99.90;;;4.26;90.80;98559.56;174236;28;1352;-73
2021/10/26 19:05:52;;;;;;;12.27;6.27;;;4.60;99.90;;;4.24;91.08;98558.84;173594;28;1425;-74
2021/10/26 19:06:03;;;;;;;11.10;6.15;;;4.60;99.90;;;4.31;90.96;98569.00;172786;28;1183;-74
2021/10/26 19:06:12;;;;;;;12.57;5.80;;;4.60;99.90;;;4.25;90.86;98557.84;172585;28;1873;-73
2021/10/26 19:06:18;;;;;;;13.32;5.54;;;4.60;99.90;;;4.27;90.84;98563.06;173701;28;1145;-74
2021/10/26 19:06:25;;;;;;;13.40;5.53;;;4.60;99.90;;;4.21;90.48;98559.06;174259;28;1411;-73
2021/10/26 19:06:33;;;;;;;12.53;5.53;;;4.60;99.90;;;4.18;90.83;98546.00;172289;28;1379;-74
2021/10/26 19:06:45;;;;;;;11.94;5.57;;;4.60;99.90;;;4.21;90.94;98553.75;172921;28;1083;-73
2021/10/26 19:06:55;;;;;;;11.51;6.07;;;4.60;99.90;;;4.20;90.72;98556.53;173722;28;1232;-73
2021/10/26 19:07:02;;;;;;;11.67;6.23;;;4.60;99.90;;;4.21;90.71;98550.22;173114;28;932;-74
2021/10/26 19:07:08;;;;;;;11.76;6.42;;;4.60;99.90;;;4.22;90.73;98551.94;172716;28;1065;-74
2021/10/26 19:07:15;;;;;;;11.40;6.27;;;4.60;99.90;;;4.27;91.13;98566.59;173028;28;1421;-74
2021/10/26 19:07:20;;;;;;;11.63;6.22;;;4.60;99.90;;;4.23;90.34;98559.81;172597;28;1080;-74
2021/10/26 19:07:26;;;;;;;10.85;6.30;;;4.60;99.90;;;4.28;90.80;98568.28;173143;28;864;-74
2021/10/26 19:07:32;;;;;;;11.18;6.22;;;4.60;99.90;;;4.24;90.21;98563.34;172046;28;2040;-73
2021/10/26 19:07:39;;;;;;;10.95;6.00;;;4.60;99.90;;;4.26;90.66;98564.88;172800;28;1558;-72
2021/10/26 19:07:46;;;;;;;12.20;5.97;;;4.60;99.90;;;4.23;90.28;98556.31;174332;28;1415;-74
2021/10/26 19:07:52;;;;;;;11.84;5.70;;;4.60;99.90;;;4.25;90.36;98568.53;173172;28;854;-74
2021/10/26 19:07:58;;;;;;;12.60;5.45;;;4.60;99.90;;;4.23;90.10;98562.47;173650;28;1106;-74
2021/10/26 19:08:04;;;;;;;12.27;5.40;;;4.60;99.90;;;4.26;89.63;98574.69;173535;28;1371;-74
2021/10/26 19:08:10;;;;;;;11.70;5.30;;;4.60;99.90;;;4.23;90.00;98566.97;174441;28;1019;-72
2021/10/26 19:08:17;;;;;;;10.43;5.07;;;4.60;99.90;;;4.23;89.52;98573.16;172401;28;1058;-73
2021/10/26 19:08:27;;;;;;;9.97;5.00;;;4.60;99.90;;;4.26;90.06;98570.22;174245;28;1281;-75
2021/10/26 19:08:41;;;;;;;11.01;5.29;;;4.50;99.90;;;4.25;89.78;98565.00;173035;28;1740;-74
2021/10/26 19:08:48;;;;;;;13.73;5.53;;;4.50;99.90;;;4.19;89.69;98561.03;174399;28;1573;-74
2021/10/26 19:08:54;;;;;;;13.34;5.76;;;4.50;99.90;;;4.19;89.33;98555.72;174276;28;1452;-73
2021/10/26 19:09:00;;;;;;;12.68;5.60;;;4.50;99.90;;;4.20;89.57;98560.03;173735;28;1126;-74
2021/10/26 19:09:07;;;;;;;11.38;5.50;;;4.50;99.90;;;4.25;89.70;98568.53;173984;28;1231;-74
2021/10/26 19:09:13;;;;;;;9.90;5.42;;;4.50;99.90;;;4.22;89.41;98560.78;173605;28;1927;-73
2021/10/26 19:09:19;;;;;;;9.83;5.40;;;4.50;99.90;;;4.13;89.32;98550.00;172117;28;1295;-73
2021/10/26 19:09:26;;;;;;;11.38;5.70;;;4.50;99.90;;;4.22;89.71;98566.13;172396;28;939;-74
2021/10/26 19:09:33;;;;;;;11.27;5.80;;;4.50;99.90;;;4.10;89.53;98545.75;173849;28;1667;-74
2021/10/26 19:09:39;;;;;;;12.03;5.97;;;4.50;99.90;;;4.19;89.24;98555.72;173730;28;1520;-74
2021/10/26 19:09:45;;;;;;;12.13;5.93;;;4.50;99.90;;;4.22;89.85;98560.78;171701;28;2941;-72
2021/10/26 19:09:51;;;;;;;12.20;5.80;;;4.50;99.90;;;4.22;89.64;98566.13;173213;28;1708;-72
2021/10/26 19:09:57;;;;;;;11.38;5.47;;;4.50;99.90;;;4.22;89.53;98565.25;173879;28;1054;-74
2021/10/26 19:10:05;;;;;;;11.23;5.30;;;4.50;99.90;;;4.21;90.03;98559.06;173156;28;1790;-74
2021/10/26 19:10:13;;;;;;;10.67;5.01;;;4.50;99.90;;;4.23;89.79;98567.81;173670;28;1052;-73
2021/10/26 19:10:19;;;;;;;10.83;4.95;;;4.50;99.90;;;4.19;89.22;98561.03;172713;28;1438;-73
2021/10/26 19:10:25;;;;;;;11.43;5.30;;;4.60;99.90;;;4.27;89.82;98565.75;173385;28;1436;-73
2021/10/26 19:10:31;;;;;;;11.23;5.32;;;4.50;99.90;;;4.24;89.96;98566.84;173762;28;1527;-72
2021/10/26 19:10:38;;;;;;;11.37;5.50;;;4.50;99.90;;;4.22;89.19;98563.44;172083;28;1415;-74
2021/10/26 19:10:44;;;;;;;10.14;5.30;;;4.50;99.90;;;4.26;89.18;98564.88;173042;28;1442;-73
2021/10/26 19:10:50;;;;;;;9.57;5.25;;;4.50;99.90;;;4.25;89.29;98571.19;173010;28;970;-73
2021/10/26 19:10:56;;;;;;;9.60;5.20;;;4.50;99.90;;;4.25;89.66;98571.19;173232;28;1329;-74
2021/10/26 19:11:02;;;;;;;10.10;5.20;;;4.50;99.90;;;4.21;89.60;98564.41;174825;28;1191;-73
2021/10/26 19:11:15;;;;;;;12.50;5.07;;;4.50;99.90;;;4.20;89.39;98562.72;174635;28;1677;-73
2021/10/26 19:11:21;;;;;;;13.98;5.45;;;4.50;99.90;;;4.19;89.52;98550.38;173259;28;1453;-74
2021/10/26 19:11:27;;;;;;;14.35;5.43;;;4.50;99.90;;;4.17;89.75;98552.31;173048;28;927;-74
2021/10/26 19:11:33;;;;;;;13.80;5.30;;;4.50;99.90;;;4.27;89.49;98566.59;173442;28;1123;-74
2021/10/26 19:11:39;;;;;;;11.38;5.22;;;4.60;99.90;;;4.26;90.12;98572.03;173264;28;1224;-74
2021/10/26 19:11:45;;;;;;;10.75;4.97;;;4.50;99.90;;;4.23;90.09;98561.63;171573;28;1462;-73
2021/10/26 19:11:52;;;;;;;15.17;5.03;;;4.50;99.90;;;4.19;89.92;98553.03;172149;28;1405;-73
2021/10/26 19:11:58;;;;;;;15.48;5.07;;;4.60;99.90;;;4.28;89.89;98578.09;173106;28;1370;-74
2021/10/26 19:12:04;;;;;;;15.44;5.30;;;4.60;99.90;;;4.24;90.29;98564.19;174595;28;1285;-75
2021/10/26 19:12:11;;;;;;;15.03;5.30;;;4.50;99.90;;;4.20;89.65;98560.03;171719;28;1256;-74
2021/10/26 19:12:17;;;;;;;14.20;5.20;;;4.60;99.90;;;4.23;89.77;98562.47;173540;28;1591;-74
2021/10/26 19:12:24;;;;;;;9.78;5.30;;;4.50;99.90;;;4.22;90.31;98563.44;174384;28;1381;-73
2021/10/26 19:12:30;;;;;;;8.93;5.27;;;4.60;99.90;;;4.21;90.38;98563.56;172877;28;1637;-74
2021/10/26 19:12:36;;;;;;;10.90;5.70;;;4.60;99.90;;;4.24;89.84;98569.50;172314;28;1686;-73
2021/10/26 19:12:43;;;;;;;11.43;5.97;;;4.50;99.90;;;4.18;90.15;98556.66;173720;28;1206;-74
2021/10/26 19:12:49;;;;;;;12.17;6.37;;;4.50;99.90;;;4.23;89.93;98567.81;174091;28;1106;-73
2021/10/26 19:12:55;;;;;;;13.13;6.47;;;4.50;99.90;;;4.26;89.49;98569.38;174183;28;1748;-74
2021/10/26 19:13:01;;;;;;;12.18;6.25;;;4.60;99.90;;;4.20;89.49;98556.53;172996;28;1303;-74
2021/10/26 19:13:07;;;;;;;10.88;5.75;;;4.50;99.90;;;4.20;89.63;98561.84;172963;28;1392;-74
2021/10/26 19:13:13;;;;;;;11.68;5.95;;;4.50;99.90;;;4.29;89.58;98577.16;173847;28;931;-74
2021/10/26 19:13:19;;;;;;;11.23;5.57;;;4.50;99.90;;;4.22;89.73;98559.94;174433;28;1323;-73
2021/10/26 19:13:25;;;;;;;11.38;5.50;;;4.50;99.90;;;4.24;89.68;98568.66;173808;28;1018;-74
2021/10/26 19:13:32;;;;;;;11.30;5.68;;;4.60;99.90;;;4.22;89.33;98563.44;173123;28;1278;-74
2021/10/26 19:13:43;;;;;;;11.84;5.74;;;4.60;99.90;;;4.23;89.12;98559.81;172830;28;1319;-74
2021/10/26 19:13:52;;;;;;;12.47;5.68;;;4.60;99.90;;;4.26;89.14;98564.88;172731;28;1754;-73
2021/10/26 19:14:01;;;;;;;12.80;5.57;;;4.50;99.90;;;4.28;89.08;98570.97;174195;28;1057;-74
2021/10/26 19:14:07;;;;;;;13.26;5.44;;;4.60;99.90;;;4.26;89.16;98567.56;172951;28;1083;-74
2021/10/26 19:14:14;;;;;;;12.98;5.35;;;4.50;99.90;;;4.21;89.57;98561.75;172154;28;1611;-74
2021/10/26 19:14:21;;;;;;;12.14;5.42;;;4.50;99.90;;;4.22;89.62;98566.13;172926;28;1443;-74
2021/10/26 19:14:28;;;;;;;12.20;5.60;;;4.60;99.90;;;4.25;89.39;98571.19;173264;28;1245;-74
2021/10/26 19:14:34;;;;;;;12.63;5.80;;;4.50;99.90;;;4.27;89.48;98573.75;172957;28;1519;-73
2021/10/26 19:14:42;;;;;;;11.67;5.93;;;4.50;99.90;;;4.24;89.47;98572.19;171419;28;1201;-73
2021/10/26 19:14:50;;;;;;;12.38;6.08;;;4.60;99.90;;;4.25;89.94;98573.84;172658;28;1390;-74
2021/10/26 19:14:57;;;;;;;13.43;5.77;;;4.60;99.90;;;4.25;90.09;98573.84;173624;28;1288;-74
2021/10/26 19:15:05;;;;;;;12.80;5.67;;;4.50;99.90;;;4.23;89.70;98567.81;173632;28;974;-74
2021/10/26 19:15:14;;;;;;;14.34;5.50;;;4.50;99.90;;;4.22;90.26;98563.44;172514;28;1496;-74
2021/10/26 19:15:20;;;;;;;14.97;5.47;;;4.50;99.90;;;4.27;90.41;98573.75;172412;28;1354;-74
2021/10/26 19:15:26;;;;;;;14.93;5.63;;;4.60;99.90;;;4.17;90.10;98557.63;173557;28;1269;-74
2021/10/26 19:15:33;;;;;;;14.07;5.50;;;4.50;99.90;;;4.22;90.28;98565.25;174496;28;1026;-74
2021/10/26 19:15:38;;;;;;;11.98;5.38;;;4.50;99.90;;;4.18;90.36;98559.34;173645;28;1311;-73
2021/10/26 19:15:44;;;;;;;11.30;5.30;;;4.50;99.90;;;4.26;90.38;98572.88;173186;28;1166;-73
2021/10/26 19:15:51;;;;;;;10.65;5.15;;;4.50;99.90;;;4.26;90.09;98572.03;174334;28;1258;-74
2021/10/26 19:15:58;;;;;;;10.50;5.16;;;4.50;99.90;;;4.23;90.35;98561.63;173902;28;1438;-74
2021/10/26 19:16:04;;;;;;;11.38;5.40;;;4.60;99.90;;;4.21;90.48;98561.75;173803;28;1373;-73
2021/10/26 19:16:13;;;;;;;12.23;5.40;;;4.50;99.90;;;4.21;90.06;98569.75;172025;28;1588;-73
2021/10/26 19:16:21;;;;;;;11.47;5.29;;;4.50;99.90;;;4.14;90.29;98557.88;171782;28;1257;-74
2021/10/26 19:16:27;;;;;;;11.50;5.17;;;4.60;99.90;;;4.19;90.09;98565.50;171821;28;1279;-74
2021/10/26 19:16:33;;;;;;;10.48;5.15;;;4.50;99.90;;;4.17;89.99;98554.97;172293;28;1353;-74
2021/10/26 19:16:39;;;;;;;11.32;5.10;;;4.50;99.90;;;4.19;90.37;98562.84;172653;28;1674;-74
2021/10/26 19:16:45;;;;;;;12.27;5.18;;;4.60;99.90;;;4.20;90.57;98565.38;172870;28;1386;-74
2021/10/26 19:16:52;;;;;;;12.47;5.07;;;4.50;99.90;;;4.21;90.14;98567.06;172024;28;1848;-72
2021/10/26 19:16:58;;;;;;;12.43;5.27;;;4.60;99.90;;;4.24;90.07;98574.84;174485;28;919;-72
2021/10/26 19:17:05;;;;;;;12.57;5.13;;;4.60;99.90;;;4.22;90.84;98570.59;173890;28;1211;-74
2021/10/26 19:17:11;;;;;;;10.42;5.06;;;4.50;99.90;;;4.18;90.68;98562.00;172618;28;1932;-74
2021/10/26 19:17:17;;;;;;;9.90;5.03;;;4.50;99.90;;;4.16;90.10;98558.59;172834;28;1330;-75
2021/10/26 19:17:23;;;;;;;9.77;5.07;;;4.50;99.90;;;4.19;90.52;98561.03;173789;28;1722;-74
2021/10/26 19:17:30;;;;;;;9.80;5.03;;;4.50;99.90;;;4.24;90.45;98572.19;173138;28;1024;-74
2021/10/26 19:17:37;;;;;;;10.00;5.02;;;4.50;99.90;;;4.09;90.28;98544.06;173007;28;976;-74
2021/10/26 19:17:43;;;;;;;12.42;5.28;;;4.50;99.90;;;4.24;90.87;98568.66;173128;28;1881;-74
2021/10/26 19:17:49;;;;;;;12.80;5.32;;;4.50;99.90;;;4.18;90.58;98570.00;173681;28;1026;-74
2021/10/26 19:17:55;;;;;;;14.02;5.13;;;4.50;99.90;;;4.23;90.62;98575.81;173639;28;923;-72
2021/10/26 19:18:02;;;;;;;13.60;5.20;;;4.50;99.90;;;4.19;90.34;98568.19;172867;28;1975;-74
2021/10/26 19:18:08;;;;;;;12.67;5.07;;;4.50;99.90;;;4.15;90.31;98564.88;172996;28;1264;-74
2021/10/26 19:18:13;;;;;;;11.43;4.70;;;4.50;99.90;;;4.19;90.65;98565.50;173451;28;1278;-73
2021/10/26 19:18:19;;;;;;;11.03;4.60;;;4.50;99.90;;;4.12;90.47;98553.63;174428;28;1341;-74
2021/10/26 19:18:25;;;;;;;9.98;4.88;;;4.50;99.90;;;4.16;89.90;98560.41;172951;28;1322;-74
2021/10/26 19:18:31;;;;;;;11.23;5.23;;;4.50;99.90;;;4.23;90.08;98577.63;171623;28;1611;-74
2021/10/26 19:18:37;;;;;;;12.63;5.57;;;4.50;99.90;;;4.20;89.75;98576.03;172388;28;1097;-74
2021/10/26 19:18:45;;;;;;;11.90;5.68;;;4.50;99.90;;;4.14;89.89;98559.69;171503;28;1317;-73
2021/10/26 19:18:51;;;;;;;11.23;5.73;;;4.50;99.90;;;4.21;90.14;98567.06;172450;28;1396;-73
2021/10/26 19:18:56;;;;;;;10.77;5.47;;;4.50;99.90;;;4.17;90.49;98567.44;172462;28;884;-74
2021/10/26 19:19:03;;;;;;;10.03;5.10;;;4.50;99.90;;;4.13;90.04;98564.19;173174;28;933;-74
2021/10/26 19:19:09;;;;;;;9.77;5.13;;;4.50;99.90;;;4.12;90.40;98557.16;173542;28;1211;-74
2021/10/26 19:19:15;;;;;;;9.85;5.10;;;4.50;99.90;;;4.18;90.77;98572.66;173083;28;1005;-73
2021/10/26 19:19:23;;;;;;;10.68;5.03;;;4.50;99.90;;;4.15;90.36;98562.22;172702;28;1479;-74
2021/10/26 19:19:29;;;;;;;10.50;5.00;;;4.50;99.90;;;4.18;90.18;98562.00;172326;28;1064;-74
2021/10/26 19:19:35;;;;;;;10.98;5.10;;;4.50;99.90;;;4.19;90.74;98573.50;173492;28;1752;-74
2021/10/26 19:19:41;;;;;;;11.20;5.18;;;4.50;99.90;;;4.17;91.02;98562.97;173025;28;2995;-72
2021/10/26 19:19:50;;;;;;;12.00;5.20;;;4.50;99.90;;;4.21;90.46;98572.41;172863;28;1459;-74
2021/10/26 19:19:57;;;;;;;12.10;5.20;;;4.50;99.90;;;4.17;90.67;98565.63;173570;28;1027;-74
2021/10/26 19:20:08;;;;;;;11.36;4.98;;;4.50;99.90;;;4.20;90.59;98573.38;172355;28;866;-74
2021/10/26 19:20:14;;;;;;;11.00;5.07;;;4.50;99.90;;;4.18;90.67;98570.00;172914;28;1425;-73
2021/10/26 19:20:20;;;;;;;12.00;5.37;;;4.50;99.90;;;4.12;90.30;98550.97;172519;28;1200;-73
2021/10/26 19:20:26;;;;;;;12.95;5.60;;;4.50;99.90;;;4.18;90.37;98564.66;172929;28;1316;-73
2021/10/26 19:20:32;;;;;;;13.25;5.57;;;4.50;99.90;;;4.19;90.83;98574.38;173682;28;1262;-75
2021/10/26 19:20:38;;;;;;;12.80;5.57;;;4.50;99.90;;;4.13;90.58;98558.00;174047;28;1283;-74
2021/10/26 19:20:46;;;;;;;12.88;5.65;;;4.50;99.90;;;4.12;90.25;98558.97;172257;28;1714;-73
2021/10/26 19:20:52;;;;;;;10.60;5.30;;;4.50;99.90;;;4.15;90.72;98566.69;172751;28;1315;-74
2021/10/26 19:20:58;;;;;;;9.97;5.10;;;4.50;99.90;;;4.16;90.20;98558.59;171532;28;1105;-74
2021/10/26 19:21:05;;;;;;;10.27;5.22;;;4.50;99.90;;;4.24;90.55;98579.31;173254;28;1403;-74
2021/10/26 19:21:13;;;;;;;10.04;5.02;;;4.50;99.90;;;4.18;90.47;98559.34;173625;28;1585;-74
2021/10/26 19:21:19;;;;;;;10.42;5.05;;;4.50;99.90;;;4.18;90.36;98567.34;174036;28;1466;-73
2021/10/26 19:21:25;;;;;;;11.05;5.30;;;4.50;99.90;;;4.21;90.61;98571.56;172972;28;1125;-73
2021/10/26 19:21:31;;;;;;;11.05;5.18;;;4.50;99.90;;;4.18;90.01;98564.66;173013;28;1679;-74
2021/10/26 19:21:38;;;;;;;11.82;5.05;;;4.50;99.90;;;4.21;90.32;98569.75;173031;28;1091;-74
2021/10/26 19:21:44;;;;;;;13.03;5.07;;;4.50;99.90;;;4.21;90.30;98569.75;172432;28;1433;-74
2021/10/26 19:21:54;;;;;;;12.57;5.10;;;4.50;99.90;;;4.20;90.08;98567.19;173704;28;1422;-74
2021/10/26 19:22:00;;;;;;;12.36;4.95;;;4.50;99.90;;;4.24;90.27;98572.19;173936;28;1552;-74
2021/10/26 19:22:06;;;;;;;12.57;4.87;;;4.50;99.90;;;4.14;90.00;98551.72;174503;28;856;-74
2021/10/26 19:22:13;;;;;;;11.40;4.87;;;4.60;99.90;;;4.21;90.06;98567.06;173814;28;1356;-74
2021/10/26 19:22:22;;;;;;;11.62;4.82;;;4.60;99.90;;;4.21;90.36;98567.06;173064;28;1355;-74
2021/10/26 19:22:30;;;;;;;12.40;4.87;;;4.60;99.90;;;4.17;89.50;98557.63;172843;28;2911;-73
2021/10/26 19:22:36;;;;;;;13.08;5.00;;;4.50;99.90;;;4.23;89.91;98577.63;174997;28;1081;-73
2021/10/26 19:22:42;;;;;;;12.88;5.00;;;4.60;99.90;;;4.21;89.71;98569.75;175029;28;2119;-74
2021/10/26 19:22:49;;;;;;;12.27;4.87;;;4.50;99.90;;;4.21;89.78;98580.41;175091;28;1015;-74
2021/10/26 19:22:55;;;;;;;11.90;4.65;;;4.50;99.90;;;4.20;89.08;98568.03;174318;28;1522;-74
2021/10/26 19:23:01;;;;;;;9.10;4.60;;;4.50;99.90;;;4.19;89.66;98574.38;172539;28;1082;-74
2021/10/26 19:23:07;;;;;;;9.15;4.72;;;4.50;99.90;;;4.13;89.35;98560.66;172915;28;1172;-74
2021/10/26 19:23:14;;;;;;;8.88;4.55;;;4.50;99.90;;;4.15;89.18;98572.88;173921;28;1323;-74
2021/10/26 19:23:20;;;;;;;9.86;4.74;;;4.50;99.90;;;4.16;89.60;98574.59;173572;28;1493;-73
2021/10/26 19:23:26;;;;;;;10.70;5.03;;;4.50;99.90;;;4.08;89.52;98557.50;173738;28;1854;-74
2021/10/26 19:23:34;;;;;;;12.10;5.00;;;4.50;99.90;;;4.15;89.60;98574.69;172341;28;1185;-75
2021/10/26 19:23:41;;;;;;;11.60;4.97;;;4.50;99.90;;;4.09;89.66;98568.03;172545;28;1477;-74
2021/10/26 19:23:47;;;;;;;12.17;4.90;;;4.50;99.90;;;4.13;89.45;98572.16;173661;28;1427;-74
2021/10/26 19:23:53;;;;;;;12.23;4.87;;;4.50;99.90;;;4.10;89.34;98566.22;173061;28;1049;-74
2021/10/26 19:23:59;;;;;;;12.85;4.78;;;4.40;99.90;;;4.12;89.57;98573.13;172122;28;1115;-74
2021/10/26 19:24:05;;;;;;;14.40;4.70;;;4.50;99.90;;;4.08;89.39;98571.69;173059;28;1216;-74
2021/10/26 19:24:11;;;;;;;15.30;4.70;;;4.50;99.90;;;4.05;89.51;98561.25;173394;28;1159;-74
2021/10/26 19:24:17;;;;;;;15.35;4.78;;;4.50;99.90;;;4.05;89.56;98560.41;172974;28;1232;-75
2021/10/26 19:24:26;;;;;;;16.40;4.78;;;4.40;99.90;;;4.09;89.67;98568.03;173005;28;1541;-74
2021/10/26 19:24:32;;;;;;;14.09;4.89;;;4.50;99.90;;;4.05;89.63;98560.41;171836;28;1598;-74
2021/10/26 19:24:38;;;;;;;11.83;4.80;;;4.50;99.90;;;4.09;89.56;98565.38;171976;28;1644;-73
2021/10/26 19:24:48;;;;;;;10.77;4.65;;;4.40;99.90;;;4.05;89.47;98552.41;172321;28;2244;-75
2021/10/26 19:24:54;;;;;;;7.80;4.80;;;4.40;99.90;;;4.07;89.63;98569.97;174334;28;1387;-73
2021/10/26 19:25:03;;;;;;;8.00;4.93;;;4.40;99.90;;;4.07;89.12;98562.00;174476;28;1046;-74
2021/10/26 19:25:11;;;;;;;9.61;5.47;;;4.40;99.90;;;3.99;89.29;98553.72;173654;28;1083;-73
2021/10/26 19:25:20;;;;;;;10.27;5.67;;;4.40;99.90;;;4.06;88.97;98578.09;174072;28;1859;-75
2021/10/26 19:25:27;;;;;;;11.10;5.37;;;4.40;99.90;;;4.01;89.42;98569.59;173529;28;1617;-73
2021/10/26 19:25:36;;;;;;;11.50;5.27;;;4.40;99.90;;;3.98;88.94;98565.38;174019;28;1317;-74
2021/10/26 19:25:42;;;;;;;10.27;4.76;;;4.40;99.90;;;4.03;88.87;98581.00;173508;28;1455;-74
2021/10/26 19:25:48;;;;;;;12.93;4.85;;;4.40;99.90;;;4.03;89.01;98573.88;173006;28;1213;-74
2021/10/26 19:25:54;;;;;;;12.63;4.80;;;4.40;99.90;;;3.96;89.39;98563.78;172409;28;1233;-74
2021/10/26 19:26:01;;;;;;;12.10;4.70;;;4.40;99.90;;;3.99;89.34;98561.72;172203;28;1348;-74
2021/10/26 19:26:09;;;;;;;12.40;4.67;;;4.40;99.90;;;4.02;89.14;98566.84;171748;28;1910;-74
2021/10/26 19:26:15;;;;;;;11.70;4.65;;;4.40;99.90;;;3.98;88.97;98562.72;172932;28;1708;-74
2021/10/26 19:26:21;;;;;;;10.90;4.75;;;4.40;99.90;;;3.97;89.33;98557.50;173595;28;1921;-76
2021/10/26 19:26:27;;;;;;;11.82;4.88;;;4.40;99.90;;;3.99;89.74;98569.72;173436;28;1328;-74
2021/10/26 19:26:33;;;;;;;14.10;5.05;;;4.40;99.90;;;3.98;89.78;98564.53;173006;28;1582;-73
2021/10/26 19:26:39;;;;;;;16.38;5.07;;;4.40;99.90;;;4.02;89.26;98568.66;173475;28;1934;-73
2021/10/26 19:26:45;;;;;;;16.27;5.07;;;4.40;99.90;;;4.06;89.78;98575.41;174416;28;1366;-74
2021/10/26 19:26:53;;;;;;;17.02;5.03;;;4.40;99.90;;;4.02;89.60;98574.81;173224;28;1511;-74
2021/10/26 19:27:01;;;;;;;14.77;5.07;;;4.40;99.90;;;4.00;89.44;98559.91;173015;28;1363;-75
2021/10/26 19:27:07;;;;;;;12.46;5.06;;;4.40;99.90;;;4.08;89.39;98576.16;172203;28;1379;-74
2021/10/26 19:27:22;;;;;;;12.50;5.05;;;4.40;99.90;;;4.03;89.83;98573.00;173034;28;1346;-74
2021/10/26 19:27:31;;;;;;;12.54;4.89;;;4.40;99.90;;;4.10;89.66;98576.88;172773;28;1303;-74
2021/10/26 19:27:38;;;;;;;11.13;4.43;;;4.40;99.90;;;4.08;89.87;98571.69;173763;28;911;-74
2021/10/26 19:27:44;;;;;;;9.90;4.33;;;4.40;99.90;;;4.11;89.75;98575.91;173997;28;1255;-74
2021/10/26 19:27:53;;;;;;;8.30;4.70;;;4.40;99.90;;;4.12;89.64;98580.28;173106;28;857;-74
2021/10/26 19:27:59;;;;;;;9.14;4.84;;;4.40;99.90;;;4.03;89.38;98565.88;172768;28;1585;-74
2021/10/26 19:28:05;;;;;;;8.75;4.97;;;4.40;99.90;;;4.10;89.15;98572.41;173728;28;1326;-74
2021/10/26 19:28:11;;;;;;;8.45;5.07;;;4.50;99.90;;;4.10;88.54;98572.41;173992;28;2028;-74
2021/10/26 19:28:17;;;;;;;8.27;4.95;;;4.40;99.90;;;4.09;89.22;98569.88;173689;28;1270;-74
2021/10/26 19:28:23;;;;;;;8.60;4.95;;;4.40;99.90;;;4.05;89.00;98569.25;171915;28;1237;-74
2021/10/26 19:28:29;;;;;;;8.45;4.57;;;4.40;99.90;;;4.11;88.68;98582.09;173578;28;1774;-74
2021/10/26 19:28:38;;;;;;;8.38;4.38;;;4.40;99.90;;;4.08;88.35;98579.69;174218;28;1624;-74